Pagrindinis puslapis
METAR-TAF:

METAR-TAF

Oro uostai :

Naples, Florida, Jungtinės Amerikos Valstijos

platuma: 26-09N, ilguma: 081-46W, Aukštis: 2 m

Dabartinis oras

Ataskaita buvo paskelbta 44 minutes, ne 06:53 UTC
Vėjas 15 kt iš Šiaurės Vakarų su gūsio iki 23 kt
Temperatūra 21°C
Drėgmė 83%
Slėgis 1017 hPa
Matomumas: 16.1 km
Su prošvaistėmis ne aukštis 1500 ft
Apsiniaukę ne aukštis 7500 ft

METAR: KAPF 270653Z AUTO 31015G23KT 10SM BKN015 OVC075 21/18 A3002 RMK AO2 SLP164 T02110178 $

Laikas: 02:37 (07:37 UTC)

Prognozė

Ataskaita buvo paskelbta 2 valandos ir 17 minutes, ne 05:20 UTC
Prognozė galioja nuo 27 metu 06 UTC su 28 metu 06 UTC
Vėjas 10 kt iš Šiaurės
Matomumas: 10 km
Išsisklaidę debesys ne aukštis 2500 ft
Su prošvaistėmis ne aukštis 3500 ft
Nuo 27 metu 1400 UTC
Vėjas 14 kt iš Šiaurės
Matomumas: 10 km
Mažai debesys ne aukštis 3000 ft
Nuo 28 metu 0000 UTC
Vėjas 6 kt iš Šiaurės Vakarų
Matomumas: 10 km
Giedras dangus

TAF: KAPF 270520Z 2706/2806 35010KT P6SM SCT025 BKN035 FM271400 35014KT P6SM FEW030 FM280000 32006KT P6SM SKC

Orai ataskaitas ir orų prognozės (METAR, TAF).

turimą stotys yra geltonos ir raudonos taškus žemėlapyje.

Perkelti pele per norėdami pamatyti stoties vardą.

Tada spustelėkite, norėdami matyti oro stebėjimo ir prognozės.

Norėdami pakeisti žemėlapį: spustelėkite ant žalios mygtukų su juodo kryžiaus žemyn,; žalią mygtuką su brūkšneliu, jei norite nutolinti; arba žalių rodyklių gretimoms žemėlapius.


METAR-TAF: